Valdez, AK

6:13 PM AKST on February 07, 2016 (GMT -0900)
Valdez | | Change Station
CLOSE
Current Station
Airport
Location: Valdez Airport,
Elevation: 121 ft
Nearby Weather Stations

Elev 121 ft 61.13 °N, 146.25 °W | Updated 17 minutes ago

Overcast
Overcast
37 °F
Feels Like 31 °F
N
8
Wind Variable Wind from NE

Today
High -- | Low -- °F
--% Chance of Precip.
Yesterday
High -- | Low -- °F
Precip. -- in
Pressure 29.78 in
Visibility 10.0 miles
Clouds Few 2500 ft
Mostly Cloudy 4000 ft
Overcast 6000 ft
Windchill 31 °F
Dew Point 21 °F
Humidity 52%
Rainfall 0.00 in
Snow Depth Not available.
8:50 AM 5:09 PM
Waning Crescent, 0% visible
METAR PAVD 080256Z 05007KT 10SM FEW025 BKN040 OVC060 03/M06 A2978 RMK AO1 0247Z WEA: VCSH E-NW TWR WND 05010KT 52007
Pressure 29.78 in
Visibility 10.0 miles
Clouds Few 2500 ft
Mostly Cloudy 4000 ft
Overcast 6000 ft
Windchill 31 °F
Dew Point 21 °F
Humidity 52%
Rainfall 0.00 in
Snow Depth Not available.
8:50 AM 5:09 PM
Waning Crescent, 0% visible
METAR PAVD 080256Z 05007KT 10SM FEW025 BKN040 OVC060 03/M06 A2978 RMK AO1 0247Z WEA: VCSH E-NW TWR WND 05010KT 52007

10-Day Weather Forecast

Almanac

Astronomy

Feb. 07, 2016 Rise Set
Actual Time
Civil Twilight
Nautical Twilight
Astronomical Twilight
Moon
Length of Visible Light
Length of Day
Tomorrow will be .
, % of the Moon is Illuminated

Today's Extremes

State Highs State Lows

Community

WunderPhotos

Upload Photos

1,891,375 photos uploaded!

WunderBlog® & News

Nearby

Air Quality

  Air Quality AQ Index Pollutant
Not available.

Snow Depth

Station Depth Elevation

Earthquake Activity

City Distance Mag. Time & Date
Minimum magnitude displayed is 2.5.

Coastal Water Temperatures

Place Temperature

Stations

Nearby Weather Stations

Station Location Temp. Windchill Dew Point Humidity Wind Precip. Elev Updated Type
                   

Watches & Warnings

There are currently no watches in effect.